Time;durP1;ratioP1;P1;durP2;ratioP2;P2;SDS_P1;SDS_P2;PMS_P1;PMS_P2;Temp;Humidity;BMP_temperature;BMP_pressure;BME280_temperature;BME280_humidity;BME280_pressure;Samples;Min_cycle;Max_cycle;Signal;HPM_P1;HPM_P2
2022/01/06 00:01:40;;;;;;;4.07;3.75;;;5.20;99.90;;;;;;6145132;23;20262;-66
2022/01/06 00:04:11;;;;;;;2.80;2.60;;;5.10;99.90;;;;;;6149482;23;20483;-66
2022/01/06 00:06:44;;;;;;;2.13;1.92;;;5.00;99.90;;;;;;6145860;23;20199;-66
2022/01/06 00:09:15;;;;;;;2.90;2.70;;;5.10;99.90;;;;;;6145509;23;20197;-65
2022/01/06 00:11:46;;;;;;;3.17;2.92;;;5.00;99.90;;;;;;6143591;23;20197;-67
2022/01/06 00:14:24;;;;;;;2.47;2.28;;;5.00;99.90;;;;;;6148246;23;20270;-67
2022/01/06 00:17:17;;;;;;;353.83;62.15;;;4.90;99.90;;;;;;6145534;23;20183;-67
2022/01/06 00:25:24;;;;;;;3.40;3.10;;;5.00;99.90;;;;;;6148865;23;20254;-70
2022/01/06 00:27:55;;;;;;;4.80;3.90;;;4.90;99.90;;;;;;6141894;23;20207;-68
2022/01/06 00:30:26;;;;;;;3.58;3.28;;;4.90;99.90;;;;;;6142090;23;20189;-69
2022/01/06 00:32:56;;;;;;;2.83;2.60;;;4.90;99.90;;;;;;6146702;23;20194;-65
2022/01/06 00:35:27;;;;;;;3.25;2.92;;;4.90;99.90;;;;;;6146943;23;20187;-65
2022/01/06 00:38:00;;;;;;;3.20;2.92;;;4.90;99.90;;;;;;6150304;23;20186;-65
2022/01/06 00:40:31;;;;;;;3.10;2.80;;;4.90;99.90;;;;;;6148688;23;20209;-66
2022/01/06 00:43:03;;;;;;;3.75;3.13;;;4.90;99.90;;;;;;6149103;23;20210;-64
2022/01/06 00:45:35;;;;;;;3.40;3.15;;;4.80;99.90;;;;;;6149844;23;20191;-65
2022/01/06 00:48:09;;;;;;;4.07;3.47;;;4.70;99.90;;;;;;6145523;23;20199;-65
2022/01/06 00:50:43;;;;;;;3.45;3.13;;;4.70;99.90;;;;;;6148180;23;20189;-65
2022/01/06 00:53:15;;;;;;;4.13;3.72;;;4.60;99.90;;;;;;6150544;23;20190;-64
2022/01/06 00:55:46;;;;;;;2.90;2.70;;;4.60;99.90;;;;;;6147624;23;20882;-65
2022/01/06 00:58:20;;;;;;;3.30;3.00;;;4.60;99.90;;;;;;6146059;23;20183;-64
2022/01/06 01:00:50;;;;;;;3.80;3.50;;;4.70;99.90;;;;;;6144826;23;20217;-65
2022/01/06 01:03:23;;;;;;;10.95;9.85;;;4.80;99.90;;;;;;6145953;23;20188;-64
2022/01/06 01:05:55;;;;;;;30.98;27.83;;;4.80;99.90;;;;;;6147835;23;20472;-64
2022/01/06 01:08:28;;;;;;;25.67;23.27;;;4.80;99.90;;;;;;6145556;23;20207;-65
2022/01/06 01:10:59;;;;;;;14.25;12.85;;;4.80;99.90;;;;;;6149227;23;20183;-66
2022/01/06 01:13:32;;;;;;;12.82;11.60;;;4.70;99.90;;;;;;6151499;23;20183;-65
2022/01/06 01:16:19;;;;;;;10.45;9.55;;;4.70;99.90;;;;;;6148796;23;20214;-65
2022/01/06 01:18:50;;;;;;;777.50;135.18;;;4.70;99.90;;;;;;6149724;23;20567;-66
2022/01/06 01:21:26;;;;;;;29.85;9.50;;;4.70;99.90;;;;;;6145530;23;20194;-67
2022/01/06 01:24:00;;;;;;;113.75;24.70;;;4.80;99.90;;;;;;6140806;23;20197;-66
2022/01/06 01:26:31;;;;;;;34.35;17.02;;;4.90;99.90;;;;;;6149472;23;20200;-64
2022/01/06 01:29:02;;;;;;;16.52;14.93;;;4.80;99.90;;;;;;6149067;23;20377;-65
2022/01/06 01:31:36;;;;;;;20.00;18.10;;;4.80;99.90;;;;;;6147472;23;20191;-65
2022/01/06 01:34:09;;;;;;;20.73;18.63;;;4.80;99.90;;;;;;6147825;23;20186;-64
2022/01/06 01:36:42;;;;;;;21.80;19.55;;;4.80;99.90;;;;;;6149220;23;20183;-65
2022/01/06 01:39:15;;;;;;;18.05;16.23;;;4.70;99.90;;;;;;6148851;23;20262;-63
2022/01/06 01:41:46;;;;;;;15.80;13.85;;;4.70;99.90;;;;;;6143775;23;20205;-64
2022/01/06 01:44:19;;;;;;;11.35;10.05;;;4.70;99.90;;;;;;6147123;23;20255;-68
2022/01/06 01:47:00;;;;;;;15.98;14.20;;;4.80;99.90;;;;;;6143252;23;20183;-64
2022/01/06 01:49:45;;;;;;;1999.90;608.90;;;4.90;99.90;;;;;;6148240;23;20640;-67
2022/01/06 01:52:16;;;;;;;9.20;8.27;;;4.90;99.90;;;;;;6147050;23;20194;-63
2022/01/06 01:54:49;;;;;;;12.90;11.57;;;5.00;99.90;;;;;;6148262;23;20183;-63
2022/01/06 01:57:20;;;;;;;10.13;8.20;;;4.90;99.90;;;;;;6149801;23;20181;-66
2022/01/06 01:59:51;;;;;;;6.50;5.90;;;4.90;99.90;;;;;;6148523;23;20189;-67
2022/01/06 02:02:22;;;;;;;2.20;2.10;;;4.90;99.90;;;;;;6146762;23;20190;-67
2022/01/06 02:04:53;;;;;;;2.72;2.50;;;4.80;99.90;;;;;;6145989;23;20183;-67
2022/01/06 02:07:24;;;;;;;2.53;2.10;;;4.90;99.90;;;;;;6146556;23;20207;-67
2022/01/06 02:09:57;;;;;;;1.52;1.42;;;4.80;99.90;;;;;;6148336;23;20543;-68
2022/01/06 02:12:30;;;;;;;2.30;2.20;;;4.80;99.90;;;;;;6145229;23;20262;-65
2022/01/06 02:15:01;;;;;;;2.15;2.05;;;4.80;99.90;;;;;;6146841;23;20186;-64
2022/01/06 02:17:32;;;;;;;2.33;2.20;;;4.80;99.90;;;;;;6144952;23;20266;-64
2022/01/06 02:20:06;;;;;;;536.63;86.40;;;4.90;99.90;;;;;;6145943;23;20194;-67
2022/01/06 02:22:37;;;;;;;3.78;3.40;;;4.90;99.90;;;;;;6146591;23;20222;-63
2022/01/06 02:25:14;;;;;;;3.63;3.10;;;5.00;99.90;;;;;;6148479;23;20190;-62
2022/01/06 02:27:47;;;;;;;4.07;3.78;;;5.00;99.90;;;;;;6150651;23;20212;-63
2022/01/06 02:30:18;;;;;;;3.35;3.15;;;5.00;99.90;;;;;;6148832;23;20197;-66
2022/01/06 02:32:49;;;;;;;3.13;2.92;;;4.90;99.90;;;;;;6142133;23;20499;-64
2022/01/06 02:35:24;;;;;;;3.33;3.13;;;4.90;99.90;;;;;;6149264;23;20183;-65
2022/01/06 02:37:54;;;;;;;3.28;2.97;;;4.90;99.90;;;;;;6149138;23;20179;-64
2022/01/06 02:40:27;;;;;;;4.50;4.20;;;5.00;99.90;;;;;;6148277;23;20205;-63
2022/01/06 02:42:59;;;;;;;4.30;4.00;;;5.00;99.90;;;;;;6148428;23;20183;-62
2022/01/06 02:45:31;;;;;;;3.47;3.08;;;5.00;99.90;;;;;;6148306;23;20189;-63
2022/01/06 02:48:08;;;;;;;3.63;3.40;;;4.90;99.90;;;;;;6149758;23;20254;-63
2022/01/06 02:50:42;;;;;;;4.28;3.78;;;5.00;99.90;;;;;;6146283;23;20209;-62
2022/01/06 02:53:14;;;;;;;2.70;2.60;;;5.00;99.90;;;;;;6148235;23;20190;-62
2022/01/06 02:55:50;;;;;;;2.42;2.30;;;5.00;99.90;;;;;;6146319;23;20183;-63
2022/01/06 02:58:41;;;;;;;2.20;2.10;;;5.00;99.90;;;;;;6146137;23;20191;-63
2022/01/06 03:01:12;;;;;;;2.83;2.63;;;5.00;99.90;;;;;;6146526;23;20266;-62
2022/01/06 03:03:43;;;;;;;3.03;2.70;;;5.00;99.90;;;;;;6146925;23;20214;-64
2022/01/06 03:06:15;;;;;;;2.60;2.40;;;5.10;99.90;;;;;;6148949;23;20187;-63
2022/01/06 03:08:46;;;;;;;1.85;1.75;;;5.10;99.90;;;;;;6145455;23;20705;-66
2022/01/06 03:11:25;;;;;;;2.45;2.25;;;5.10;99.90;;;;;;6149937;23;20187;-64
2022/01/06 03:13:56;;;;;;;2.58;2.38;;;5.10;99.90;;;;;;6147519;23;20205;-64
2022/01/06 03:16:28;;;;;;;2.25;2.05;;;5.10;99.90;;;;;;6146500;23;20219;-64
2022/01/06 03:18:58;;;;;;;2.30;2.20;;;5.20;99.90;;;;;;6147095;23;20186;-65
2022/01/06 03:21:31;;;;;;;266.25;39.83;;;5.20;99.90;;;;;;6146241;23;20194;-63
2022/01/06 03:24:02;;;;;;;715.63;107.05;;;5.30;99.90;;;;;;6147883;23;20193;-64
2022/01/06 03:26:32;;;;;;;5.45;2.80;;;5.30;99.90;;;;;;6148354;23;20191;-63
2022/01/06 03:29:03;;;;;;;2.92;2.72;;;5.30;99.90;;;;;;6147442;23;20279;-63
2022/01/06 03:31:34;;;;;;;2.50;2.30;;;5.20;99.90;;;;;;6148376;23;20648;-63
2022/01/06 03:34:05;;;;;;;2.17;2.05;;;5.20;99.90;;;;;;6146531;23;20245;-63
2022/01/06 03:36:38;;;;;;;2.50;2.30;;;5.20;99.90;;;;;;6148032;23;20187;-63
2022/01/06 03:39:09;;;;;;;2.67;2.47;;;5.20;99.90;;;;;;6144142;23;20190;-63
2022/01/06 03:41:40;;;;;;;5.90;5.40;;;5.20;99.90;;;;;;6145354;23;20501;-63
2022/01/06 03:44:10;;;;;;;3.78;3.47;;;5.20;99.90;;;;;;6147938;23;20481;-62
2022/01/06 03:46:41;;;;;;;2.20;2.10;;;5.20;99.90;;;;;;6147444;23;20365;-62
2022/01/06 03:49:12;;;;;;;1.77;1.67;;;5.20;99.90;;;;;;6143791;23;20698;-62
2022/01/06 03:51:45;;;;;;;2.50;2.40;;;5.20;99.90;;;;;;6141722;23;20199;-64
2022/01/06 03:54:16;;;;;;;2.17;2.08;;;5.20;99.90;;;;;;6142442;23;20529;-65
2022/01/06 03:56:48;;;;;;;153.77;25.52;;;5.20;99.90;;;;;;6151014;23;20258;-64
2022/01/06 03:59:20;;;;;;;10.30;3.67;;;5.20;99.90;;;;;;6149724;23;20578;-66
2022/01/06 04:01:50;;;;;;;2.50;2.30;;;5.20;99.90;;;;;;6149934;23;20289;-63
2022/01/06 04:04:22;;;;;;;2.65;2.55;;;5.20;99.90;;;;;;6147994;23;20206;-63
2022/01/06 04:06:54;;;;;;;1.60;1.50;;;5.20;99.90;;;;;;6147647;23;20499;-63
2022/01/06 04:09:25;;;;;;;1.50;1.40;;;5.20;99.90;;;;;;6147256;23;20209;-64
2022/01/06 04:11:56;;;;;;;1.00;1.00;;;5.20;99.90;;;;;;6145775;23;20194;-64
2022/01/06 04:14:26;;;;;;;3.47;1.27;;;5.20;99.90;;;;;;6149391;23;20230;-64
2022/01/06 04:17:00;;;;;;;1.60;1.50;;;5.20;99.90;;;;;;6149911;23;20234;-64
2022/01/06 04:19:31;;;;;;;1.20;1.00;;;5.20;99.90;;;;;;6150513;23;20179;-65
2022/01/06 04:22:03;;;;;;;2.13;2.00;;;5.10;99.90;;;;;;6146829;23;20508;-65
2022/01/06 04:24:35;;;;;;;1.70;1.60;;;5.10;99.90;;;;;;6149612;23;20288;-64
2022/01/06 04:27:07;;;;;;;1.80;1.70;;;5.10;99.90;;;;;;6149682;23;20203;-64
2022/01/06 04:29:38;;;;;;;2.67;1.50;;;5.10;99.90;;;;;;6151027;23;20207;-65
2022/01/06 04:32:09;;;;;;;1.75;1.67;;;5.00;99.90;;;;;;6148027;23;20358;-64
2022/01/06 04:34:40;;;;;;;2.92;1.70;;;5.10;99.90;;;;;;6146548;23;20434;-65
2022/01/06 04:37:13;;;;;;;1.83;1.73;;;5.10;99.90;;;;;;6148338;23;20184;-64
2022/01/06 04:39:43;;;;;;;1.67;1.58;;;5.10;99.90;;;;;;6149368;23;20183;-66
2022/01/06 04:42:14;;;;;;;1.30;1.30;;;5.10;99.90;;;;;;6151460;23;20532;-65
2022/01/06 04:44:45;;;;;;;2.08;1.52;;;5.10;99.90;;;;;;6148776;23;20183;-65
2022/01/06 04:47:16;;;;;;;1.92;1.83;;;5.20;99.90;;;;;;6149330;23;20183;-65
2022/01/06 04:49:47;;;;;;;1.70;1.60;;;5.10;99.90;;;;;;6143136;23;20675;-66
2022/01/06 04:52:19;;;;;;;2.42;2.22;;;5.20;99.90;;;;;;6149396;23;20262;-66
2022/01/06 04:54:50;;;;;;;2.80;2.60;;;5.30;99.90;;;;;;6148537;23;20183;-66
2022/01/06 04:57:21;;;;;;;3.90;3.60;;;5.20;99.90;;;;;;6151716;23;20646;-66
2022/01/06 04:59:52;;;;;;;3.70;3.40;;;5.30;99.90;;;;;;6148998;23;20179;-66
2022/01/06 05:02:26;;;;;;;3.70;3.45;;;5.20;99.90;;;;;;6147504;23;20647;-66
2022/01/06 05:04:57;;;;;;;4.35;4.05;;;5.20;99.90;;;;;;6143359;23;20616;-66
2022/01/06 05:07:29;;;;;;;5.00;4.50;;;5.20;99.90;;;;;;6147380;23;20306;-65
2022/01/06 05:10:00;;;;;;;4.30;4.00;;;5.20;99.90;;;;;;6148165;23;20709;-64
2022/01/06 05:12:33;;;;;;;4.90;4.38;;;5.20;99.90;;;;;;6151297;23;20184;-65
2022/01/06 05:15:04;;;;;;;4.78;4.38;;;5.20;99.90;;;;;;6148990;23;20242;-65
2022/01/06 05:17:34;;;;;;;5.57;5.07;;;5.30;99.90;;;;;;6144598;23;20198;-66
2022/01/06 05:20:06;;;;;;;4.88;4.40;;;5.30;99.90;;;;;;6147937;23;20179;-65
2022/01/06 05:22:44;;;;;;;4.90;4.50;;;5.30;99.90;;;;;;6149710;23;20201;-66
2022/01/06 05:25:16;;;;;;;4.20;3.80;;;5.30;99.90;;;;;;6148682;23;20183;-65
2022/01/06 05:27:46;;;;;;;3.70;3.40;;;5.40;99.90;;;;;;6148841;23;20203;-65
2022/01/06 05:30:17;;;;;;;2.92;2.72;;;5.40;99.90;;;;;;6149023;23;20701;-66
2022/01/06 05:32:49;;;;;;;3.78;3.47;;;5.30;99.90;;;;;;6146973;23;20261;-65
2022/01/06 05:35:20;;;;;;;3.17;2.88;;;5.40;99.90;;;;;;6147422;23;20585;-65
2022/01/06 05:37:52;;;;;;;3.08;2.80;;;5.40;99.90;;;;;;6149449;23;20670;-64
2022/01/06 05:40:23;;;;;;;2.00;1.90;;;5.40;99.90;;;;;;6148510;23;20278;-65
2022/01/06 05:42:56;;;;;;;2.10;1.90;;;5.30;99.90;;;;;;6144601;23;20254;-65
2022/01/06 05:45:28;;;;;;;2.58;2.17;;;5.30;99.90;;;;;;6148311;23;20263;-65
2022/01/06 05:47:59;;;;;;;2.55;2.35;;;5.30;99.90;;;;;;6146088;23;20184;-65
2022/01/06 05:50:30;;;;;;;3.00;2.80;;;5.30;99.90;;;;;;6142892;23;20628;-63
2022/01/06 05:53:02;;;;;;;2.60;2.40;;;5.40;99.90;;;;;;6147368;23;20228;-64
2022/01/06 05:55:33;;;;;;;2.75;2.55;;;5.40;99.90;;;;;;6148808;23;20686;-63
2022/01/06 05:58:04;;;;;;;3.65;2.90;;;5.30;99.90;;;;;;6149981;23;20183;-63
2022/01/06 06:00:35;;;;;;;2.47;2.28;;;5.40;99.90;;;;;;6147391;23;20183;-63
2022/01/06 06:03:06;;;;;;;2.75;2.55;;;5.40;99.90;;;;;;6146647;23;20249;-63
2022/01/06 06:05:40;;;;;;;3.25;2.95;;;5.40;99.90;;;;;;6147236;23;20189;-63
2022/01/06 06:08:13;;;;;;;3.97;3.67;;;5.50;99.90;;;;;;6150399;23;20214;-63
2022/01/06 06:10:44;;;;;;;3.50;3.30;;;5.40;99.90;;;;;;6144008;23;20521;-63
2022/01/06 06:13:15;;;;;;;5.18;3.38;;;5.40;99.90;;;;;;6149894;23;20313;-63
2022/01/06 06:15:46;;;;;;;3.95;3.67;;;5.50;99.90;;;;;;6148426;23;20205;-63
2022/01/06 06:18:17;;;;;;;6.03;3.50;;;5.50;99.90;;;;;;6146946;23;20202;-63
2022/01/06 06:20:48;;;;;;;3.22;2.90;;;5.50;99.90;;;;;;6148699;23;20179;-63
2022/01/06 06:23:20;;;;;;;3.65;3.35;;;5.50;99.90;;;;;;6147793;23;20190;-64
2022/01/06 06:25:51;;;;;;;3.72;3.42;;;5.50;99.90;;;;;;6150417;23;20187;-64
2022/01/06 06:28:22;;;;;;;4.65;4.35;;;5.50;99.90;;;;;;6147940;23;20286;-64
2022/01/06 06:30:53;;;;;;;5.05;4.30;;;5.50;99.90;;;;;;6148157;23;20214;-64
2022/01/06 06:33:23;;;;;;;5.18;4.68;;;5.60;99.90;;;;;;6146705;23;20191;-64
2022/01/06 06:35:54;;;;;;;4.97;4.57;;;5.60;99.90;;;;;;6149978;23;20207;-63
2022/01/06 06:38:27;;;;;;;5.88;5.38;;;5.60;99.90;;;;;;6143602;23;20704;-63
2022/01/06 06:40:58;;;;;;;5.32;4.82;;;5.60;99.90;;;;;;6150515;23;20179;-64
2022/01/06 06:43:28;;;;;;;5.03;4.60;;;5.50;99.90;;;;;;6148366;23;20193;-63
2022/01/06 06:45:59;;;;;;;5.50;5.00;;;5.50;99.90;;;;;;6150447;23;20272;-65
2022/01/06 06:48:30;;;;;;;4.78;4.38;;;5.50;99.90;;;;;;6146452;23;20526;-65
2022/01/06 06:51:02;;;;;;;5.85;5.15;;;5.50;99.90;;;;;;6148424;23;20620;-64
2022/01/06 06:53:34;;;;;;;4.80;4.40;;;5.60;99.90;;;;;;6146137;23;20187;-64
2022/01/06 06:56:06;;;;;;;3.95;3.65;;;5.60;99.90;;;;;;6146338;23;20258;-64
2022/01/06 06:58:36;;;;;;;5.93;5.32;;;5.50;99.90;;;;;;6149859;23;20197;-65
2022/01/06 07:01:07;;;;;;;5.03;4.47;;;5.60;99.90;;;;;;6146498;23;20183;-64
2022/01/06 07:03:39;;;;;;;4.68;4.25;;;5.50;99.90;;;;;;6147191;23;20270;-64
2022/01/06 07:06:10;;;;;;;4.80;4.40;;;5.50;99.90;;;;;;6148369;23;20205;-64
2022/01/06 07:08:42;;;;;;;5.05;4.60;;;5.50;99.90;;;;;;6144890;23;20507;-64
2022/01/06 07:11:13;;;;;;;5.13;4.63;;;5.50;99.90;;;;;;6150282;23;20218;-64
2022/01/06 07:13:44;;;;;;;5.20;4.70;;;5.50;99.90;;;;;;6147639;23;20183;-64
2022/01/06 07:16:14;;;;;;;4.70;4.30;;;5.60;99.90;;;;;;6148814;23;20183;-65
2022/01/06 07:18:45;;;;;;;4.82;4.43;;;5.60;99.90;;;;;;6148956;23;20191;-64
2022/01/06 07:21:16;;;;;;;5.00;4.60;;;5.60;99.90;;;;;;6146496;23;20180;-64
2022/01/06 07:23:49;;;;;;;4.90;4.50;;;5.50;99.90;;;;;;6147779;23;20187;-64
2022/01/06 07:26:19;;;;;;;4.53;4.13;;;5.50;99.90;;;;;;6150386;23;20183;-65
2022/01/06 07:28:50;;;;;;;4.68;4.25;;;5.50;99.90;;;;;;6147609;23;20186;-64
2022/01/06 07:31:21;;;;;;;5.00;4.60;;;5.50;99.90;;;;;;6147027;23;20207;-65
2022/01/06 07:33:52;;;;;;;4.80;4.40;;;5.60;99.90;;;;;;6148480;23;20187;-64
2022/01/06 07:36:23;;;;;;;5.03;4.63;;;5.60;99.90;;;;;;6150270;23;20188;-64
2022/01/06 07:38:55;;;;;;;4.75;4.43;;;5.60;99.90;;;;;;6151126;23;20189;-64
2022/01/06 07:41:26;;;;;;;4.53;4.10;;;5.60;99.90;;;;;;6152243;23;20254;-64
2022/01/06 07:43:57;;;;;;;3.28;3.05;;;5.60;99.90;;;;;;6150129;23;20190;-64
2022/01/06 07:46:28;;;;;;;3.70;3.50;;;5.60;99.90;;;;;;6147685;23;20509;-64
2022/01/06 07:48:59;;;;;;;3.17;2.97;;;5.60;99.90;;;;;;6148135;23;20218;-64
2022/01/06 07:51:32;;;;;;;4.35;3.95;;;5.50;99.90;;;;;;6150189;23;20256;-64
2022/01/06 07:54:04;;;;;;;3.20;3.00;;;5.50;99.90;;;;;;6149749;23;20233;-64
2022/01/06 07:56:35;;;;;;;3.15;2.95;;;5.60;99.90;;;;;;6149807;23;20187;-64
2022/01/06 07:59:07;;;;;;;3.20;2.95;;;5.60;99.90;;;;;;6147199;23;20183;-63
2022/01/06 08:01:38;;;;;;;3.83;3.17;;;5.60;99.90;;;;;;6150111;23;20179;-63
2022/01/06 08:04:09;;;;;;;3.88;3.58;;;5.70;99.90;;;;;;6149093;23;20539;-62
2022/01/06 08:06:40;;;;;;;3.70;3.40;;;5.70;99.90;;;;;;6148238;23;20183;-63
2022/01/06 08:09:13;;;;;;;3.45;3.15;;;5.70;99.90;;;;;;6149668;23;20214;-62
2022/01/06 08:11:44;;;;;;;3.22;3.03;;;5.80;99.90;;;;;;6151712;23;20210;-63
2022/01/06 08:14:14;;;;;;;2.95;2.75;;;5.80;99.90;;;;;;6149345;23;20528;-62
2022/01/06 08:16:45;;;;;;;3.90;3.25;;;5.80;99.90;;;;;;6149778;23;20282;-63
2022/01/06 08:19:18;;;;;;;2.90;2.60;;;5.70;99.90;;;;;;6150457;23;20198;-63
2022/01/06 08:21:49;;;;;;;4.43;3.40;;;5.70;99.90;;;;;;6149278;23;20189;-64
2022/01/06 08:24:21;;;;;;;3.03;2.83;;;5.80;99.90;;;;;;6151666;23;20669;-63
2022/01/06 08:26:52;;;;;;;3.13;2.83;;;5.70;99.90;;;;;;6149447;23;20203;-63
2022/01/06 08:29:23;;;;;;;4.82;3.05;;;5.80;99.90;;;;;;6151312;23;20193;-63
2022/01/06 08:31:53;;;;;;;6.20;5.70;;;5.80;99.90;;;;;;6145774;23;21008;-63
2022/01/06 08:34:24;;;;;;;4.53;3.97;;;5.80;99.90;;;;;;6147857;23;20183;-63
2022/01/06 08:36:55;;;;;;;4.00;3.58;;;5.80;99.90;;;;;;6149552;23;20197;-62
2022/01/06 08:39:28;;;;;;;3.40;3.10;;;5.90;99.90;;;;;;6149381;23;20183;-63
2022/01/06 08:41:58;;;;;;;4.55;3.20;;;6.00;99.90;;;;;;6147259;23;20179;-63
2022/01/06 08:44:29;;;;;;;3.65;3.10;;;5.90;99.90;;;;;;6151432;23;20350;-64
2022/01/06 08:47:01;;;;;;;4.28;3.42;;;5.90;99.90;;;;;;6147806;23;20183;-63
2022/01/06 08:49:32;;;;;;;3.15;2.80;;;6.00;99.90;;;;;;6147937;23;20895;-63
2022/01/06 08:52:04;;;;;;;3.38;3.15;;;6.00;99.90;;;;;;6149355;23;20513;-63
2022/01/06 08:54:37;;;;;;;3.72;3.20;;;6.10;99.90;;;;;;6149171;23;20746;-65
2022/01/06 08:57:07;;;;;;;3.25;3.00;;;6.20;99.90;;;;;;6150290;23;20215;-64
2022/01/06 08:59:38;;;;;;;2.50;2.30;;;6.20;99.90;;;;;;6149262;23;20269;-64
2022/01/06 09:02:10;;;;;;;2.85;2.55;;;6.30;99.90;;;;;;6148059;23;20460;-64
2022/01/06 09:04:41;;;;;;;3.72;2.70;;;6.30;99.90;;;;;;6150726;23;20229;-63
2022/01/06 09:07:12;;;;;;;3.00;2.70;;;6.20;99.90;;;;;;6149763;23;20258;-63
2022/01/06 09:09:45;;;;;;;2.72;2.53;;;6.30;99.90;;;;;;6146944;23;20184;-64
2022/01/06 09:12:18;;;;;;;3.58;3.33;;;6.30;99.90;;;;;;6151411;23;20203;-63
2022/01/06 09:14:49;;;;;;;3.53;3.28;;;6.30;99.90;;;;;;6149155;23;20183;-63
2022/01/06 09:17:20;;;;;;;3.47;3.17;;;6.40;99.90;;;;;;6147825;23;20183;-63
2022/01/06 09:19:51;;;;;;;3.85;3.30;;;6.40;99.90;;;;;;6145918;23;20221;-64
2022/01/06 09:22:21;;;;;;;4.07;2.90;;;6.50;99.90;;;;;;6149307;23;20179;-63
2022/01/06 09:24:54;;;;;;;3.47;3.17;;;6.50;99.90;;;;;;6150956;23;20209;-64
2022/01/06 09:27:25;;;;;;;3.13;2.67;;;6.50;99.90;;;;;;6148354;23;20213;-63
2022/01/06 09:29:56;;;;;;;3.65;3.35;;;6.60;99.90;;;;;;6146796;23;20187;-64
2022/01/06 09:32:26;;;;;;;3.97;3.67;;;6.60;99.90;;;;;;6149313;23;20203;-63
2022/01/06 09:34:57;;;;;;;5.05;3.90;;;6.60;99.90;;;;;;6149833;23;20190;-63
2022/01/06 09:37:28;;;;;;;4.13;3.72;;;6.60;99.90;;;;;;6149389;23;20187;-63
2022/01/06 09:40:01;;;;;;;4.40;4.00;;;6.60;99.90;;;;;;6148966;23;20183;-63
2022/01/06 09:42:32;;;;;;;4.45;3.80;;;6.60;99.90;;;;;;6151356;23;21128;-63
2022/01/06 09:45:03;;;;;;;4.20;3.80;;;6.50;99.90;;;;;;6147150;23;20188;-63
2022/01/06 09:47:34;;;;;;;4.82;4.30;;;6.50;99.90;;;;;;6146878;23;20193;-63
2022/01/06 09:50:11;;;;;;;5.13;4.45;;;6.60;99.90;;;;;;6150037;23;20639;-63
2022/01/06 09:52:43;;;;;;;6.18;4.85;;;6.60;99.90;;;;;;6145209;23;20210;-62
2022/01/06 09:55:15;;;;;;;5.65;4.80;;;6.60;99.90;;;;;;6146492;23;20350;-63
2022/01/06 09:57:57;;;;;;;4.90;4.38;;;6.50;99.90;;;;;;6148932;23;20183;-63
2022/01/06 10:00:29;;;;;;;5.32;4.82;;;6.50;99.90;;;;;;6148474;23;20205;-63
2022/01/06 10:03:02;;;;;;;5.85;5.32;;;6.60;99.90;;;;;;6146761;23;20179;-63
2022/01/06 10:05:44;;;;;;;4.55;4.15;;;6.60;99.90;;;;;;6146997;23;20183;-63
2022/01/06 10:08:27;;;;;;;5.53;4.90;;;6.70;99.90;;;;;;6149581;23;20575;-63
2022/01/06 10:11:12;;;;;;;6.60;5.53;;;6.70;99.90;;;;;;6148643;23;20198;-63
2022/01/06 10:13:45;;;;;;;6.75;5.38;;;6.80;99.90;;;;;;6147948;23;20278;-63
2022/01/06 10:16:18;;;;;;;8.30;5.40;;;7.10;99.90;;;;;;6148472;23;20262;-62
2022/01/06 10:19:01;;;;;;;6.85;4.97;;;7.40;99.90;;;;;;6148822;23;20270;-62
2022/01/06 10:21:38;;;;;;;4.53;4.07;;;7.60;99.90;;;;;;6146475;23;20605;-63
2022/01/06 10:24:11;;;;;;;2.90;2.60;;;8.10;99.90;;;;;;6150840;23;20641;-64
2022/01/06 10:26:56;;;;;;;2.30;1.45;;;8.80;99.90;;;;;;6149455;23;20203;-64
2022/01/06 10:29:29;;;;;;;2.75;1.50;;;9.40;99.90;;;;;;6146285;23;20182;-64
2022/01/06 10:32:07;;;;;;;2.30;1.20;;;9.80;99.90;;;;;;6146429;23;20662;-63
2022/01/06 10:34:40;;;;;;;0.80;0.80;;;10.10;99.90;;;;;;6149225;23;20652;-64
2022/01/06 10:37:22;;;;;;;0.70;0.70;;;10.40;99.90;;;;;;6149185;23;20428;-64
2022/01/06 10:39:54;;;;;;;0.83;0.83;;;10.70;99.90;;;;;;6146513;23;20431;-64
2022/01/06 10:42:29;;;;;;;0.93;0.50;;;10.80;99.90;;;;;;6151069;23;20410;-63
2022/01/06 10:45:05;;;;;;;1.00;0.43;;;11.00;99.90;;;;;;6146379;23;20417;-63
2022/01/06 10:47:38;;;;;;;0.53;0.53;;;11.00;99.90;;;;;;6148901;23;20411;-65
2022/01/06 10:50:14;;;;;;;1.00;0.40;;;11.20;99.90;;;;;;6145699;23;20418;-63
2022/01/06 10:52:47;;;;;;;0.40;0.40;;;11.20;99.90;;;;;;6146523;23;20446;-64
2022/01/06 10:55:20;;;;;;;0.60;0.60;;;11.20;99.90;;;;;;6150327;23;20502;-64
2022/01/06 10:57:54;;;;;;;0.70;0.60;;;11.30;99.90;;;;;;6146837;23;20419;-63
2022/01/06 11:00:28;;;;;;;0.50;0.50;;;11.40;99.90;;;;;;6148145;23;20432;-64
2022/01/06 11:03:12;;;;;;;0.40;0.40;;;11.50;99.90;;;;;;6146292;23;20451;-64
2022/01/06 11:05:45;;;;;;;0.40;0.40;;;11.40;99.90;;;;;;6151618;23;20465;-64
2022/01/06 11:08:20;;;;;;;0.90;0.50;;;11.50;99.90;;;;;;6150355;23;20485;-64
2022/01/06 11:11:03;;;;;;;0.50;0.50;;;11.50;99.90;;;;;;6152545;23;20496;-64
2022/01/06 11:13:36;;;;;;;0.40;0.40;;;11.50;99.90;;;;;;6150083;23;20544;-64
2022/01/06 11:16:08;;;;;;;0.50;0.40;;;11.50;99.90;;;;;;6149746;23;20410;-64
2022/01/06 11:18:43;;;;;;;0.40;0.20;;;11.60;99.90;;;;;;6149272;23;20411;-63
2022/01/06 11:21:17;;;;;;;0.37;0.37;;;11.60;99.90;;;;;;6146352;23;20493;-64
2022/01/06 11:23:48;;;;;;;0.67;0.43;;;11.60;99.90;;;;;;6151648;23;20406;-64
2022/01/06 11:26:23;;;;;;;0.33;0.33;;;11.70;99.90;;;;;;6148397;23;20423;-64
2022/01/06 11:28:59;;;;;;;0.40;0.30;;;11.70;99.90;;;;;;6150090;23;20910;-64
2022/01/06 11:31:37;;;;;;;0.40;0.30;;;11.70;99.90;;;;;;6147958;23;21019;-64
2022/01/06 11:34:17;;;;;;;1.60;0.47;;;11.70;99.90;;;;;;6151336;23;20918;-63
2022/01/06 11:36:50;;;;;;;0.30;0.20;;;11.70;99.90;;;;;;6150269;23;20581;-64
2022/01/06 11:39:29;;;;;;;0.43;0.30;;;11.70;99.90;;;;;;6150328;23;20410;-64
2022/01/06 11:42:01;;;;;;;0.30;0.30;;;11.70;99.90;;;;;;6148206;23;20499;-65
2022/01/06 11:44:34;;;;;;;0.40;0.30;;;11.80;99.90;;;;;;6150645;23;20609;-64
2022/01/06 11:47:06;;;;;;;0.37;0.30;;;11.80;99.90;;;;;;6148427;23;20410;-64
2022/01/06 11:49:39;;;;;;;0.40;0.40;;;11.70;99.90;;;;;;6148674;23;20416;-63
2022/01/06 11:52:13;;;;;;;0.83;0.30;;;11.80;99.90;;;;;;6147898;23;20748;-63
2022/01/06 11:54:54;;;;;;;0.40;0.40;;;11.80;99.90;;;;;;6151233;23;20442;-64
2022/01/06 11:57:33;;;;;;;0.30;0.30;;;11.80;99.90;;;;;;6150477;23;20410;-63
2022/01/06 12:00:21;;;;;;;0.40;0.30;;;11.80;99.90;;;;;;6152227;23;20501;-63
2022/01/06 12:03:00;;;;;;;0.60;0.60;;;11.90;99.90;;;;;;6147657;23;20407;-63
2022/01/06 12:05:43;;;;;;;0.33;0.33;;;11.80;99.90;;;;;;6148608;23;20410;-63
2022/01/06 12:08:14;;;;;;;0.30;0.30;;;11.80;99.90;;;;;;6151805;23;20751;-64
2022/01/06 12:10:46;;;;;;;2.40;0.40;;;11.80;99.90;;;;;;6147975;23;20496;-64
2022/01/06 12:13:18;;;;;;;2.97;1.17;;;11.90;99.90;;;;;;6149929;23;20988;-64
2022/01/06 12:15:54;;;;;;;0.40;0.40;;;11.90;99.90;;;;;;6150100;23;20411;-64
2022/01/06 12:18:27;;;;;;;0.53;0.30;;;11.90;99.90;;;;;;6145690;23;20922;-64
2022/01/06 12:20:59;;;;;;;0.30;0.30;;;11.80;99.90;;;;;;6146990;23;20510;-63
2022/01/06 12:23:31;;;;;;;0.40;0.40;;;11.90;99.90;;;;;;6151543;23;20413;-64
2022/01/06 12:26:04;;;;;;;0.50;0.47;;;11.90;99.90;;;;;;6149889;23;20417;-62
2022/01/06 12:28:35;;;;;;;0.50;0.50;;;11.90;99.90;;;;;;6149083;23;20439;-63
2022/01/06 12:31:08;;;;;;;0.47;0.40;;;11.90;99.90;;;;;;6150189;23;20410;-63
2022/01/06 12:33:46;;;;;;;0.83;0.50;;;11.90;99.90;;;;;;6147938;23;20448;-62
2022/01/06 12:36:19;;;;;;;0.90;0.30;;;11.90;99.90;;;;;;6151841;23;20518;-63
2022/01/06 12:38:50;;;;;;;0.50;0.40;;;11.90;99.90;;;;;;6148211;23;20410;-64
2022/01/06 12:41:28;;;;;;;0.30;0.30;;;11.90;99.90;;;;;;6149639;23;20505;-63
2022/01/06 12:43:59;;;;;;;0.50;0.50;;;11.90;99.90;;;;;;6149487;23;20693;-63
2022/01/06 12:46:35;;;;;;;0.40;0.40;;;11.90;99.90;;;;;;6147426;23;20509;-63
2022/01/06 12:49:08;;;;;;;0.60;0.50;;;11.90;99.90;;;;;;6146105;23;20799;-64
2022/01/06 12:51:41;;;;;;;0.50;0.50;;;11.90;99.90;;;;;;6149668;23;20475;-65
2022/01/06 12:54:15;;;;;;;0.70;0.40;;;11.80;99.90;;;;;;6151454;23;20446;-64
2022/01/06 12:56:48;;;;;;;0.30;0.30;;;11.90;99.90;;;;;;6151752;23;20426;-63
2022/01/06 12:59:26;;;;;;;0.60;0.50;;;11.90;99.90;;;;;;6149060;23;20872;-64
2022/01/06 13:02:00;;;;;;;0.80;0.70;;;11.90;99.90;;;;;;6149793;23;20417;-64
2022/01/06 13:04:33;;;;;;;0.50;0.50;;;11.90;99.90;;;;;;6148283;23;20915;-65
2022/01/06 13:07:06;;;;;;;1.23;0.53;;;11.90;99.90;;;;;;6151635;23;21046;-64
2022/01/06 13:09:38;;;;;;;2.00;0.80;;;11.90;99.90;;;;;;6144807;23;20415;-65
2022/01/06 13:12:11;;;;;;;0.67;0.67;;;11.90;99.90;;;;;;6145995;23;20915;-64
2022/01/06 13:14:45;;;;;;;0.50;0.50;;;11.90;99.90;;;;;;6147936;23;20469;-65
2022/01/06 13:17:19;;;;;;;0.60;0.60;;;11.90;99.90;;;;;;6149579;23;20410;-64
2022/01/06 13:19:59;;;;;;;0.60;0.60;;;11.90;99.90;;;;;;6148365;23;20410;-64
2022/01/06 13:22:49;;;;;;;0.60;0.60;;;11.90;99.90;;;;;;6147101;23;20496;-65
2022/01/06 13:25:21;;;;;;;0.60;0.60;;;11.90;99.90;;;;;;6150329;23;20407;-64
2022/01/06 13:27:57;;;;;;;0.70;0.70;;;11.90;99.90;;;;;;6148955;23;20812;-65